Maldives Meteorological Service

TAFS

Station TAF
VRMM
VRMM 220500Z 2206/2312 27006KT 9999 FEW018 TEMPO 2208/2214 FEW019CB=
VRMH
VRMH 220500Z 2206/2306 26007KT 9999 FEW018 TEMPO 2209/2215 5000 – SHRA FEW019CB=
VRMK
VRMK 220500Z 2206/2306 19004KT 9999 FEW018 TEMPO 2206/2212 FEW019CB=
VRMT
VRMT 220500Z 2206/2306 32004KT 9999 FEW018 TEMPO 2206/2214 FEW019CB=
VRMG
VRMG 220500Z 2206/2312 33004KT 9999 FEW018 TEMPO 2209/2215 5000 –TSRA FEW017CB=